AFR44SA LFPG-EDDF
Flight info
| Callsign | AFR44SA |
|---|---|
| Flight time | 1h 1m |
| Altitude | 22000 |
| Route | RANUX DCT VALEK DCT LIPNI UN858 LIMGO Z111 RAMOB IMCOM1A |
| Aircraft | E190/M-SDE3GILORVW/S |
Departure
| Time | 2026-05-05 08:11 |
|---|---|
| Airport | Charles de Gaulle International Airport (LFPG) |
Arrival
| Time | 2026-05-05 09:12 |
|---|---|
| Airport | Frankfurt Main Airport (EDDF) |
| Time | Latitude | Longitude | Altitude | Speed | Heading |
|---|---|---|---|---|---|
| 2026-05-05 07:28 | 49.00380 | 2.60030 | 328 ft | 0 kts | 354° |
| 2026-05-05 07:29 | 49.00384 | 2.60045 | 330 ft | 0 kts | 354° |
| 2026-05-05 08:00 | 49.00363 | 2.60049 | 330 ft | 4 kts | 342° |
| 2026-05-05 08:00 | 49.00342 | 2.60067 | 329 ft | 4 kts | 282° |
| 2026-05-05 08:00 | 49.00342 | 2.60098 | 328 ft | 2 kts | 265° |
| 2026-05-05 08:00 | 49.00342 | 2.60100 | 328 ft | 0 kts | 265° |
| 2026-05-05 08:04 | 49.00342 | 2.60099 | 333 ft | 0 kts | 265° |
| 2026-05-05 08:04 | 49.00342 | 2.60092 | 333 ft | 3 kts | 266° |
| 2026-05-05 08:04 | 49.00338 | 2.60019 | 333 ft | 9 kts | 265° |
| 2026-05-05 08:05 | 49.00332 | 2.59913 | 331 ft | 11 kts | 265° |
| 2026-05-05 08:05 | 49.00325 | 2.59789 | 333 ft | 12 kts | 264° |
| 2026-05-05 08:05 | 49.00316 | 2.59655 | 333 ft | 11 kts | 255° |
| 2026-05-05 08:05 | 49.00249 | 2.59627 | 332 ft | 11 kts | 175° |
| 2026-05-05 08:06 | 49.00164 | 2.59636 | 329 ft | 13 kts | 174° |
| 2026-05-05 08:06 | 49.00060 | 2.59648 | 323 ft | 18 kts | 175° |
| 2026-05-05 08:06 | 48.99991 | 2.59531 | 325 ft | 18 kts | 266° |
| 2026-05-05 08:06 | 48.99981 | 2.59330 | 326 ft | 19 kts | 264° |
| 2026-05-05 08:07 | 48.99970 | 2.59118 | 326 ft | 21 kts | 267° |
| 2026-05-05 08:07 | 48.99958 | 2.58892 | 324 ft | 22 kts | 264° |
| 2026-05-05 08:07 | 48.99944 | 2.58655 | 323 ft | 23 kts | 264° |
| 2026-05-05 08:07 | 48.99931 | 2.58405 | 326 ft | 24 kts | 266° |
| 2026-05-05 08:08 | 48.99917 | 2.58143 | 325 ft | 25 kts | 265° |
| 2026-05-05 08:08 | 48.99901 | 2.57869 | 323 ft | 26 kts | 265° |
| 2026-05-05 08:08 | 48.99886 | 2.57586 | 323 ft | 27 kts | 265° |
| 2026-05-05 08:08 | 48.99871 | 2.57293 | 323 ft | 28 kts | 266° |
| 2026-05-05 08:09 | 48.99854 | 2.56994 | 327 ft | 29 kts | 265° |
| 2026-05-05 08:09 | 48.99837 | 2.56697 | 327 ft | 25 kts | 264° |
| 2026-05-05 08:09 | 48.99737 | 2.56612 | 328 ft | 17 kts | 177° |
| 2026-05-05 08:09 | 48.99651 | 2.56670 | 336 ft | 13 kts | 109° |
| 2026-05-05 08:10 | 48.99651 | 2.56742 | 335 ft | 1 kts | 85° |
| 2026-05-05 08:10 | 48.99660 | 2.56952 | 329 ft | 53 kts | 86° |
| 2026-05-05 08:10 | 48.99712 | 2.57867 | 328 ft | 118 kts | 85° |
| 2026-05-05 08:10 | 48.99791 | 2.59432 | 395 ft | 167 kts | 84° |
| 2026-05-05 08:11 | 48.99843 | 2.61310 | 982 ft | 188 kts | 85° |
| 2026-05-05 08:11 | 48.99907 | 2.63423 | 1833 ft | 207 kts | 86° |
| 2026-05-05 08:11 | 49.00058 | 2.65529 | 3119 ft | 194 kts | 80° |
| 2026-05-05 08:11 | 49.00258 | 2.67539 | 4107 ft | 196 kts | 81° |
| 2026-05-05 08:12 | 49.00434 | 2.69679 | 4903 ft | 206 kts | 83° |
| 2026-05-05 08:12 | 49.00572 | 2.71917 | 5589 ft | 225 kts | 85° |
| 2026-05-05 08:12 | 49.00698 | 2.74399 | 6293 ft | 243 kts | 85° |
| 2026-05-05 08:12 | 49.00831 | 2.77062 | 6997 ft | 260 kts | 85° |
| 2026-05-05 08:13 | 49.00971 | 2.79861 | 7829 ft | 268 kts | 85° |
| 2026-05-05 08:13 | 49.01116 | 2.82701 | 8655 ft | 271 kts | 85° |
| 2026-05-05 08:13 | 49.01262 | 2.85591 | 9494 ft | 274 kts | 85° |
| 2026-05-05 08:13 | 49.01409 | 2.88516 | 10168 ft | 284 kts | 85° |
| 2026-05-05 08:14 | 49.01468 | 2.89674 | 10276 ft | 292 kts | 85° |
| 2026-05-05 08:14 | 49.01757 | 2.94982 | 10813 ft | 324 kts | 82° |
| 2026-05-05 08:14 | 49.02149 | 2.98419 | 11401 ft | 333 kts | 78° |
| 2026-05-05 08:14 | 49.02615 | 3.01898 | 12208 ft | 337 kts | 79° |
| 2026-05-05 08:15 | 49.03058 | 3.05425 | 13051 ft | 342 kts | 80° |
| 2026-05-05 08:15 | 49.03487 | 3.09021 | 13899 ft | 347 kts | 81° |
| 2026-05-05 08:15 | 49.03909 | 3.12664 | 14754 ft | 351 kts | 81° |
| 2026-05-05 08:15 | 49.04332 | 3.16346 | 15598 ft | 355 kts | 82° |
| 2026-05-05 08:16 | 49.04760 | 3.20084 | 16394 ft | 360 kts | 82° |
| 2026-05-05 08:16 | 49.05192 | 3.23875 | 17161 ft | 365 kts | 82° |
| 2026-05-05 08:16 | 49.05628 | 3.27713 | 17945 ft | 370 kts | 82° |
| 2026-05-05 08:16 | 49.06068 | 3.31593 | 18672 ft | 375 kts | 82° |
| 2026-05-05 08:17 | 49.06514 | 3.35530 | 19380 ft | 379 kts | 82° |
| 2026-05-05 08:17 | 49.06964 | 3.39513 | 20054 ft | 383 kts | 82° |
| 2026-05-05 08:17 | 49.07419 | 3.43535 | 20748 ft | 388 kts | 82° |
| 2026-05-05 08:17 | 49.07876 | 3.47600 | 21371 ft | 393 kts | 82° |
| 2026-05-05 08:18 | 49.08187 | 3.50385 | 21793 ft | 396 kts | 82° |
| 2026-05-05 08:18 | 49.08807 | 3.55962 | 21944 ft | 404 kts | 82° |
| 2026-05-05 08:18 | 49.09172 | 3.60214 | 21939 ft | 404 kts | 86° |
| 2026-05-05 08:18 | 49.09418 | 3.64491 | 21937 ft | 405 kts | 87° |
| 2026-05-05 08:19 | 49.09660 | 3.68775 | 21866 ft | 404 kts | 86° |
| 2026-05-05 08:19 | 49.09923 | 3.73056 | 21874 ft | 405 kts | 86° |
| 2026-05-05 08:19 | 49.10202 | 3.77338 | 21880 ft | 406 kts | 86° |
| 2026-05-05 08:19 | 49.10488 | 3.81688 | 21879 ft | 406 kts | 86° |
| 2026-05-05 08:20 | 49.10772 | 3.86030 | 21878 ft | 406 kts | 86° |
| 2026-05-05 08:20 | 49.11051 | 3.90316 | 21878 ft | 406 kts | 86° |
| 2026-05-05 08:20 | 49.11329 | 3.94600 | 21881 ft | 406 kts | 86° |
| 2026-05-05 08:20 | 49.11605 | 3.98886 | 21881 ft | 406 kts | 86° |
| 2026-05-05 08:21 | 49.11883 | 4.03233 | 21883 ft | 406 kts | 86° |
| 2026-05-05 08:21 | 49.12155 | 4.07525 | 21887 ft | 406 kts | 86° |
| 2026-05-05 08:21 | 49.12427 | 4.11825 | 21891 ft | 407 kts | 86° |
| 2026-05-05 08:21 | 49.12697 | 4.16131 | 21889 ft | 407 kts | 86° |
| 2026-05-05 08:22 | 49.12966 | 4.20431 | 21883 ft | 407 kts | 86° |
| 2026-05-05 08:22 | 49.13233 | 4.24729 | 21881 ft | 407 kts | 86° |
| 2026-05-05 08:22 | 49.13498 | 4.29031 | 21884 ft | 407 kts | 86° |
| 2026-05-05 08:22 | 49.13770 | 4.33452 | 21883 ft | 407 kts | 86° |
| 2026-05-05 08:23 | 49.14344 | 4.37660 | 21895 ft | 411 kts | 73° |
| 2026-05-05 08:23 | 49.15382 | 4.41729 | 21901 ft | 412 kts | 69° |
| 2026-05-05 08:23 | 49.16503 | 4.45766 | 21875 ft | 412 kts | 69° |
| 2026-05-05 08:23 | 49.17622 | 4.49805 | 21881 ft | 412 kts | 69° |
| 2026-05-05 08:24 | 49.18730 | 4.53846 | 21884 ft | 413 kts | 69° |
| 2026-05-05 08:24 | 49.19833 | 4.57900 | 21879 ft | 413 kts | 69° |
| 2026-05-05 08:24 | 49.20935 | 4.61960 | 21881 ft | 413 kts | 70° |
| 2026-05-05 08:24 | 49.22024 | 4.65987 | 21879 ft | 413 kts | 70° |
| 2026-05-05 08:25 | 49.22774 | 4.68768 | 21875 ft | 414 kts | 70° |
| 2026-05-05 08:25 | 49.23887 | 4.72898 | 21877 ft | 414 kts | 70° |
| 2026-05-05 08:25 | 49.24961 | 4.76891 | 21877 ft | 414 kts | 70° |
| 2026-05-05 08:25 | 49.26077 | 4.81050 | 21873 ft | 414 kts | 70° |
| 2026-05-05 08:26 | 49.27172 | 4.85135 | 21879 ft | 414 kts | 70° |
| 2026-05-05 08:26 | 49.28265 | 4.89222 | 21871 ft | 414 kts | 70° |
| 2026-05-05 08:26 | 49.29396 | 4.93459 | 21877 ft | 414 kts | 70° |
| 2026-05-05 08:26 | 49.30459 | 4.97448 | 21872 ft | 414 kts | 70° |
| 2026-05-05 08:27 | 49.31577 | 5.01648 | 21876 ft | 415 kts | 70° |
| 2026-05-05 08:27 | 49.32678 | 5.05795 | 21875 ft | 415 kts | 70° |
| 2026-05-05 08:27 | 49.33765 | 5.09897 | 21877 ft | 415 kts | 70° |
| 2026-05-05 08:27 | 49.34853 | 5.14005 | 21877 ft | 415 kts | 70° |
| 2026-05-05 08:28 | 49.35938 | 5.18111 | 21875 ft | 416 kts | 70° |
| 2026-05-05 08:28 | 49.37023 | 5.22224 | 21878 ft | 416 kts | 70° |
| 2026-05-05 08:28 | 49.38106 | 5.26342 | 21878 ft | 416 kts | 70° |
| 2026-05-05 08:28 | 49.39189 | 5.30466 | 21879 ft | 416 kts | 70° |
| 2026-05-05 08:29 | 49.40270 | 5.34586 | 21877 ft | 417 kts | 70° |
| 2026-05-05 08:29 | 49.41350 | 5.38711 | 21886 ft | 417 kts | 70° |
| 2026-05-05 08:29 | 49.42430 | 5.42846 | 21871 ft | 417 kts | 70° |
| 2026-05-05 08:30 | 49.44587 | 5.51121 | 21870 ft | 417 kts | 70° |
| 2026-05-05 08:30 | 49.45662 | 5.55257 | 21865 ft | 417 kts | 70° |
| 2026-05-05 08:30 | 49.46737 | 5.59400 | 21864 ft | 417 kts | 70° |
| 2026-05-05 08:30 | 49.47812 | 5.63547 | 21875 ft | 417 kts | 70° |
| 2026-05-05 08:31 | 49.48884 | 5.67692 | 21881 ft | 417 kts | 70° |
| 2026-05-05 08:31 | 49.49940 | 5.71783 | 21875 ft | 417 kts | 70° |
| 2026-05-05 08:31 | 49.51010 | 5.75934 | 21875 ft | 417 kts | 70° |
| 2026-05-05 08:31 | 49.52070 | 5.80098 | 21882 ft | 418 kts | 72° |
| 2026-05-05 08:32 | 49.53040 | 5.84306 | 21881 ft | 417 kts | 73° |
| 2026-05-05 08:32 | 49.54007 | 5.88517 | 21886 ft | 417 kts | 72° |
| 2026-05-05 08:32 | 49.55038 | 5.92687 | 21879 ft | 418 kts | 71° |
| 2026-05-05 08:32 | 49.56082 | 5.96861 | 21883 ft | 418 kts | 71° |
| 2026-05-05 08:33 | 49.57123 | 6.01051 | 21880 ft | 418 kts | 71° |
| 2026-05-05 08:33 | 49.58157 | 6.05228 | 21884 ft | 418 kts | 71° |
| 2026-05-05 08:33 | 49.59188 | 6.09412 | 21881 ft | 418 kts | 71° |
| 2026-05-05 08:33 | 49.60218 | 6.13597 | 21886 ft | 418 kts | 71° |
| 2026-05-05 08:34 | 49.61246 | 6.17783 | 21891 ft | 417 kts | 71° |
| 2026-05-05 08:34 | 49.62273 | 6.21974 | 21888 ft | 417 kts | 71° |
| 2026-05-05 08:34 | 49.63295 | 6.26155 | 21889 ft | 417 kts | 71° |
| 2026-05-05 08:34 | 49.64553 | 6.30204 | 21900 ft | 420 kts | 63° |
| 2026-05-05 08:35 | 49.66028 | 6.34104 | 21890 ft | 421 kts | 61° |
| 2026-05-05 08:35 | 49.67538 | 6.37976 | 21879 ft | 420 kts | 61° |
| 2026-05-05 08:35 | 49.69038 | 6.41838 | 21880 ft | 420 kts | 61° |
| 2026-05-05 08:35 | 49.70560 | 6.45785 | 21878 ft | 420 kts | 61° |
| 2026-05-05 08:36 | 49.72029 | 6.49606 | 21875 ft | 420 kts | 60° |
| 2026-05-05 08:36 | 49.73861 | 6.53125 | 21885 ft | 423 kts | 44° |
| 2026-05-05 08:36 | 49.76122 | 6.56058 | 21889 ft | 424 kts | 39° |
| 2026-05-05 08:36 | 49.78449 | 6.58878 | 21854 ft | 424 kts | 39° |
| 2026-05-05 08:37 | 49.80765 | 6.61705 | 21863 ft | 424 kts | 39° |
| 2026-05-05 08:37 | 49.83070 | 6.64547 | 21868 ft | 424 kts | 40° |
| 2026-05-05 08:37 | 49.85372 | 6.67406 | 21869 ft | 425 kts | 40° |
| 2026-05-05 08:37 | 49.87672 | 6.70273 | 21863 ft | 425 kts | 40° |
| 2026-05-05 08:38 | 49.89971 | 6.73146 | 21861 ft | 424 kts | 40° |
| 2026-05-05 08:38 | 49.92269 | 6.76022 | 21865 ft | 424 kts | 40° |
| 2026-05-05 08:38 | 49.94569 | 6.78898 | 21860 ft | 424 kts | 40° |
| 2026-05-05 08:38 | 49.96862 | 6.81778 | 21866 ft | 424 kts | 40° |
| 2026-05-05 08:39 | 49.99156 | 6.84659 | 21868 ft | 424 kts | 40° |
| 2026-05-05 08:39 | 50.01451 | 6.87545 | 21864 ft | 425 kts | 40° |
| 2026-05-05 08:39 | 50.03747 | 6.90434 | 21863 ft | 424 kts | 40° |
| 2026-05-05 08:39 | 50.06038 | 6.93324 | 21878 ft | 424 kts | 40° |
| 2026-05-05 08:40 | 50.08331 | 6.96218 | 21881 ft | 425 kts | 40° |
| 2026-05-05 08:40 | 50.10619 | 6.99111 | 21887 ft | 424 kts | 40° |
| 2026-05-05 08:40 | 50.12914 | 7.02017 | 21887 ft | 424 kts | 40° |
| 2026-05-05 08:40 | 50.15205 | 7.04921 | 21887 ft | 424 kts | 40° |
| 2026-05-05 08:41 | 50.17490 | 7.07814 | 21689 ft | 421 kts | 40° |
| 2026-05-05 08:41 | 50.19741 | 7.10677 | 21398 ft | 414 kts | 40° |
| 2026-05-05 08:41 | 50.21972 | 7.13519 | 20899 ft | 414 kts | 40° |
| 2026-05-05 08:41 | 50.24195 | 7.16356 | 20360 ft | 410 kts | 40° |
| 2026-05-05 08:42 | 50.26302 | 7.19289 | 19919 ft | 400 kts | 50° |
| 2026-05-05 08:42 | 50.27810 | 7.22886 | 19444 ft | 398 kts | 69° |
| 2026-05-05 08:42 | 50.28363 | 7.27055 | 18951 ft | 390 kts | 92° |
| 2026-05-05 08:42 | 50.27859 | 7.31153 | 18429 ft | 383 kts | 115° |
| 2026-05-05 08:43 | 50.26436 | 7.34719 | 17932 ft | 375 kts | 129° |
| 2026-05-05 08:43 | 50.24885 | 7.37865 | 17417 ft | 373 kts | 129° |
| 2026-05-05 08:43 | 50.23315 | 7.41134 | 16932 ft | 370 kts | 129° |
| 2026-05-05 08:43 | 50.21782 | 7.44344 | 16414 ft | 368 kts | 129° |
| 2026-05-05 08:44 | 50.20290 | 7.47513 | 15967 ft | 365 kts | 128° |
| 2026-05-05 08:44 | 50.18800 | 7.50763 | 15449 ft | 363 kts | 127° |
| 2026-05-05 08:44 | 50.17361 | 7.53969 | 14960 ft | 360 kts | 127° |
| 2026-05-05 08:44 | 50.15894 | 7.57291 | 14479 ft | 354 kts | 126° |
| 2026-05-05 08:45 | 50.14591 | 7.60295 | 14027 ft | 346 kts | 126° |
| 2026-05-05 08:45 | 50.13256 | 7.63425 | 13544 ft | 339 kts | 126° |
| 2026-05-05 08:45 | 50.11995 | 7.66416 | 13139 ft | 329 kts | 125° |
| 2026-05-05 08:45 | 50.10770 | 7.69349 | 12829 ft | 318 kts | 126° |
| 2026-05-05 08:46 | 50.09549 | 7.72158 | 12493 ft | 308 kts | 127° |
| 2026-05-05 08:46 | 50.08344 | 7.74843 | 12270 ft | 298 kts | 127° |
| 2026-05-05 08:46 | 50.07172 | 7.77453 | 12053 ft | 292 kts | 127° |
| 2026-05-05 08:46 | 50.06010 | 7.80051 | 11829 ft | 293 kts | 127° |
| 2026-05-05 08:47 | 50.04841 | 7.82672 | 11610 ft | 296 kts | 127° |
| 2026-05-05 08:47 | 50.03669 | 7.85299 | 11366 ft | 295 kts | 127° |
| 2026-05-05 08:47 | 50.02502 | 7.87917 | 11156 ft | 294 kts | 127° |
| 2026-05-05 08:47 | 50.01337 | 7.90525 | 11001 ft | 291 kts | 127° |
| 2026-05-05 08:48 | 50.00386 | 7.93295 | 10971 ft | 294 kts | 111° |
| 2026-05-05 08:48 | 50.00036 | 7.96565 | 10890 ft | 300 kts | 90° |
| 2026-05-05 08:48 | 50.00437 | 7.99620 | 10899 ft | 301 kts | 73° |
| 2026-05-05 08:48 | 50.01176 | 8.02678 | 10891 ft | 302 kts | 70° |
| 2026-05-05 08:49 | 50.01955 | 8.05718 | 10890 ft | 302 kts | 70° |
| 2026-05-05 08:49 | 50.02719 | 8.08766 | 10883 ft | 303 kts | 70° |
| 2026-05-05 08:49 | 50.03476 | 8.11841 | 10891 ft | 303 kts | 70° |
| 2026-05-05 08:49 | 50.04219 | 8.14885 | 10890 ft | 303 kts | 71° |
| 2026-05-05 08:50 | 50.04965 | 8.17951 | 10892 ft | 303 kts | 71° |
| 2026-05-05 08:50 | 50.05706 | 8.21012 | 10890 ft | 303 kts | 71° |
| 2026-05-05 08:50 | 50.06447 | 8.24069 | 10897 ft | 302 kts | 71° |
| 2026-05-05 08:50 | 50.07188 | 8.27133 | 10894 ft | 302 kts | 71° |
| 2026-05-05 08:51 | 50.07933 | 8.30218 | 10897 ft | 302 kts | 71° |
| 2026-05-05 08:51 | 50.08666 | 8.33265 | 10897 ft | 303 kts | 71° |
| 2026-05-05 08:51 | 50.09256 | 8.35715 | 10894 ft | 302 kts | 71° |
| 2026-05-05 08:51 | 50.10003 | 8.38817 | 10895 ft | 302 kts | 71° |
| 2026-05-05 08:52 | 50.10733 | 8.41849 | 10880 ft | 303 kts | 71° |
| 2026-05-05 08:52 | 50.11468 | 8.44911 | 10889 ft | 302 kts | 71° |
| 2026-05-05 08:52 | 50.12203 | 8.47983 | 10875 ft | 302 kts | 71° |
| 2026-05-05 08:52 | 50.12934 | 8.51044 | 10885 ft | 302 kts | 71° |
| 2026-05-05 08:53 | 50.13670 | 8.54120 | 10891 ft | 303 kts | 71° |
| 2026-05-05 08:53 | 50.14402 | 8.57195 | 10885 ft | 302 kts | 71° |
| 2026-05-05 08:53 | 50.15130 | 8.60249 | 10880 ft | 301 kts | 71° |
| 2026-05-05 08:53 | 50.15863 | 8.63330 | 10887 ft | 302 kts | 71° |
| 2026-05-05 08:54 | 50.16727 | 8.66970 | 10881 ft | 302 kts | 71° |
| 2026-05-05 08:54 | 50.17343 | 8.69571 | 10884 ft | 302 kts | 71° |
| 2026-05-05 08:54 | 50.18070 | 8.72645 | 10876 ft | 302 kts | 71° |
| 2026-05-05 08:54 | 50.18798 | 8.75705 | 10869 ft | 302 kts | 71° |
| 2026-05-05 08:55 | 50.19535 | 8.78792 | 10880 ft | 302 kts | 71° |
| 2026-05-05 08:55 | 50.20261 | 8.81866 | 10872 ft | 302 kts | 71° |
| 2026-05-05 08:55 | 50.20983 | 8.84942 | 10861 ft | 302 kts | 71° |
| 2026-05-05 08:55 | 50.21704 | 8.88022 | 10866 ft | 302 kts | 71° |
| 2026-05-05 08:56 | 50.22425 | 8.91102 | 10869 ft | 302 kts | 71° |
| 2026-05-05 08:56 | 50.23146 | 8.94182 | 10870 ft | 302 kts | 71° |
| 2026-05-05 08:56 | 50.23867 | 8.97261 | 10867 ft | 302 kts | 71° |
| 2026-05-05 08:56 | 50.24586 | 9.00336 | 10867 ft | 302 kts | 71° |
| 2026-05-05 08:57 | 50.25304 | 9.03419 | 10865 ft | 301 kts | 71° |
| 2026-05-05 08:57 | 50.26022 | 9.06499 | 10865 ft | 302 kts | 71° |
| 2026-05-05 08:57 | 50.26729 | 9.09535 | 10864 ft | 302 kts | 71° |
| 2026-05-05 08:57 | 50.27456 | 9.12665 | 10864 ft | 302 kts | 71° |
| 2026-05-05 08:58 | 50.28169 | 9.15745 | 10861 ft | 302 kts | 72° |
| 2026-05-05 08:58 | 50.28884 | 9.18835 | 10857 ft | 302 kts | 72° |
| 2026-05-05 08:58 | 50.29602 | 9.21938 | 10858 ft | 302 kts | 72° |
| 2026-05-05 08:58 | 50.30311 | 9.25011 | 10864 ft | 302 kts | 72° |
| 2026-05-05 08:59 | 50.31024 | 9.28104 | 10864 ft | 302 kts | 72° |
| 2026-05-05 08:59 | 50.31537 | 9.31247 | 10867 ft | 292 kts | 86° |
| 2026-05-05 08:59 | 50.31426 | 9.34276 | 10852 ft | 271 kts | 107° |
| 2026-05-05 08:59 | 50.30730 | 9.36900 | 10825 ft | 252 kts | 125° |
| 2026-05-05 09:00 | 50.29623 | 9.38909 | 10817 ft | 237 kts | 143° |
| 2026-05-05 09:00 | 50.28257 | 9.40291 | 10879 ft | 235 kts | 157° |
| 2026-05-05 09:00 | 50.26670 | 9.41058 | 10901 ft | 237 kts | 171° |
| 2026-05-05 09:00 | 50.25054 | 9.41163 | 10912 ft | 236 kts | 191° |
| 2026-05-05 09:01 | 50.23526 | 9.40228 | 10933 ft | 237 kts | 215° |
| 2026-05-05 09:01 | 50.22429 | 9.38339 | 10944 ft | 239 kts | 240° |
| 2026-05-05 09:01 | 50.21849 | 9.35852 | 10855 ft | 245 kts | 251° |
| 2026-05-05 09:01 | 50.21376 | 9.33114 | 10011 ft | 267 kts | 253° |
| 2026-05-05 09:02 | 50.20881 | 9.30284 | 9091 ft | 282 kts | 250° |
| 2026-05-05 09:02 | 50.20212 | 9.27354 | 8166 ft | 289 kts | 247° |
| 2026-05-05 09:02 | 50.19509 | 9.24489 | 7807 ft | 276 kts | 248° |
| 2026-05-05 09:02 | 50.18849 | 9.21734 | 7468 ft | 266 kts | 248° |
| 2026-05-05 09:03 | 50.18222 | 9.19079 | 7141 ft | 256 kts | 248° |
| 2026-05-05 09:03 | 50.17613 | 9.16474 | 6802 ft | 248 kts | 248° |
| 2026-05-05 09:03 | 50.17032 | 9.13981 | 6463 ft | 241 kts | 248° |
| 2026-05-05 09:03 | 50.16471 | 9.11570 | 6178 ft | 230 kts | 248° |
| 2026-05-05 09:04 | 50.15943 | 9.09300 | 5869 ft | 217 kts | 248° |
| 2026-05-05 09:04 | 50.15441 | 9.07148 | 5660 ft | 204 kts | 248° |
| 2026-05-05 09:04 | 50.14964 | 9.05097 | 5448 ft | 194 kts | 248° |
| 2026-05-05 09:04 | 50.14525 | 9.03219 | 5245 ft | 181 kts | 248° |
| 2026-05-05 09:05 | 50.14092 | 9.01408 | 4937 ft | 175 kts | 247° |
| 2026-05-05 09:05 | 50.13662 | 8.99663 | 4642 ft | 171 kts | 248° |
| 2026-05-05 09:05 | 50.13261 | 8.97932 | 4346 ft | 167 kts | 249° |
| 2026-05-05 09:05 | 50.12870 | 8.96249 | 4058 ft | 164 kts | 248° |
| 2026-05-05 09:06 | 50.12490 | 8.94638 | 3956 ft | 150 kts | 248° |
| 2026-05-05 09:06 | 50.12135 | 8.93121 | 3994 ft | 151 kts | 248° |
| 2026-05-05 09:06 | 50.11767 | 8.91544 | 3995 ft | 156 kts | 248° |
| 2026-05-05 09:06 | 50.11393 | 8.89951 | 4011 ft | 157 kts | 249° |
| 2026-05-05 09:07 | 50.11017 | 8.88348 | 4019 ft | 158 kts | 248° |
| 2026-05-05 09:07 | 50.10689 | 8.86950 | 4029 ft | 158 kts | 249° |
| 2026-05-05 09:07 | 50.10286 | 8.85233 | 3942 ft | 163 kts | 249° |
| 2026-05-05 09:07 | 50.09914 | 8.83649 | 3717 ft | 163 kts | 249° |
| 2026-05-05 09:08 | 50.09530 | 8.82020 | 3494 ft | 159 kts | 248° |
| 2026-05-05 09:08 | 50.09150 | 8.80407 | 3287 ft | 158 kts | 249° |
| 2026-05-05 09:08 | 50.08773 | 8.78804 | 3073 ft | 157 kts | 249° |
| 2026-05-05 09:08 | 50.08371 | 8.77100 | 2854 ft | 157 kts | 249° |
| 2026-05-05 09:09 | 50.07997 | 8.75515 | 2654 ft | 155 kts | 249° |
| 2026-05-05 09:09 | 50.07636 | 8.73987 | 2425 ft | 146 kts | 249° |
| 2026-05-05 09:09 | 50.07296 | 8.72547 | 2227 ft | 138 kts | 250° |
| 2026-05-05 09:09 | 50.06958 | 8.71120 | 2082 ft | 147 kts | 250° |
| 2026-05-05 09:10 | 50.06595 | 8.69584 | 1876 ft | 155 kts | 250° |
| 2026-05-05 09:10 | 50.06221 | 8.68006 | 1662 ft | 155 kts | 250° |
| 2026-05-05 09:10 | 50.05849 | 8.66436 | 1443 ft | 155 kts | 250° |
| 2026-05-05 09:10 | 50.05476 | 8.64865 | 1233 ft | 154 kts | 250° |
| 2026-05-05 09:11 | 50.05109 | 8.63317 | 1019 ft | 149 kts | 250° |
| 2026-05-05 09:11 | 50.04763 | 8.61857 | 823 ft | 139 kts | 250° |
| 2026-05-05 09:11 | 50.04431 | 8.60471 | 635 ft | 136 kts | 251° |
| 2026-05-05 09:11 | 50.04109 | 8.59084 | 474 ft | 137 kts | 250° |
| 2026-05-05 09:12 | 50.03778 | 8.57693 | 366 ft | 129 kts | 249° |
| 2026-05-05 09:12 | 50.03501 | 8.56545 | 356 ft | 98 kts | 250° |
| 2026-05-05 09:12 | 50.03315 | 8.55724 | 349 ft | 54 kts | 262° |
| 2026-05-05 09:12 | 50.03325 | 8.55405 | 344 ft | 12 kts | 279° |
| 2026-05-05 09:13 | 50.03341 | 8.55259 | 338 ft | 13 kts | 279° |
| 2026-05-05 09:13 | 50.03353 | 8.55150 | 340 ft | 10 kts | 280° |
| 2026-05-05 09:13 | 50.03363 | 8.55087 | 338 ft | 11 kts | 286° |
| 2026-05-05 09:13 | 50.03409 | 8.54923 | 340 ft | 14 kts | 295° |
| 2026-05-05 09:14 | 50.03474 | 8.54834 | 344 ft | 8 kts | 340° |
| 2026-05-05 09:14 | 50.03481 | 8.54830 | 342 ft | 0 kts | 340° |
| 2026-05-05 09:15 | 50.03483 | 8.54828 | 342 ft | 2 kts | 340° |
| 2026-05-05 09:16 | 50.03518 | 8.54809 | 344 ft | 9 kts | 340° |
| 2026-05-05 09:16 | 50.03598 | 8.54763 | 352 ft | 16 kts | 339° |
| 2026-05-05 09:16 | 50.03722 | 8.54715 | 344 ft | 19 kts | 12° |
| 2026-05-05 09:16 | 50.03791 | 8.54874 | 347 ft | 18 kts | 69° |
| 2026-05-05 09:17 | 50.03837 | 8.55064 | 348 ft | 19 kts | 70° |
| 2026-05-05 09:17 | 50.03884 | 8.55265 | 353 ft | 20 kts | 67° |
| 2026-05-05 09:17 | 50.03935 | 8.55477 | 352 ft | 21 kts | 70° |
| 2026-05-05 09:17 | 50.03990 | 8.55705 | 351 ft | 23 kts | 68° |
| 2026-05-05 09:18 | 50.04048 | 8.55945 | 349 ft | 23 kts | 72° |
| 2026-05-05 09:18 | 50.04103 | 8.56179 | 355 ft | 24 kts | 70° |
| 2026-05-05 09:18 | 50.04160 | 8.56424 | 356 ft | 24 kts | 70° |
| 2026-05-05 09:18 | 50.04221 | 8.56672 | 362 ft | 24 kts | 69° |
| 2026-05-05 09:19 | 50.04278 | 8.56916 | 358 ft | 24 kts | 70° |
| 2026-05-05 09:19 | 50.04338 | 8.57166 | 361 ft | 25 kts | 69° |
| 2026-05-05 09:19 | 50.04399 | 8.57423 | 366 ft | 26 kts | 69° |
| 2026-05-05 09:19 | 50.04464 | 8.57691 | 365 ft | 26 kts | 68° |
| 2026-05-05 09:20 | 50.04526 | 8.57952 | 363 ft | 22 kts | 70° |
| 2026-05-05 09:20 | 50.04610 | 8.58017 | 363 ft | 15 kts | 339° |
| 2026-05-05 09:20 | 50.04718 | 8.57954 | 356 ft | 17 kts | 346° |
| 2026-05-05 09:20 | 50.04806 | 8.58066 | 360 ft | 18 kts | 69° |
| 2026-05-05 09:21 | 50.04849 | 8.58252 | 361 ft | 19 kts | 70° |
| 2026-05-05 09:21 | 50.04898 | 8.58453 | 361 ft | 21 kts | 69° |
| 2026-05-05 09:21 | 50.04945 | 8.58639 | 359 ft | 9 kts | 68° |
| 2026-05-05 09:21 | 50.04982 | 8.58719 | 358 ft | 9 kts | 14° |
| 2026-05-05 09:22 | 50.05037 | 8.58673 | 360 ft | 8 kts | 320° |
| 2026-05-05 09:22 | 50.05050 | 8.58656 | 358 ft | 0 kts | 320° |
| 2026-05-05 09:24 | 50.05051 | 8.58654 | 358 ft | 0 kts | 320° |